Time;durP1;ratioP1;P1;durP2;ratioP2;P2;SDS_P1;SDS_P2;PMS_P1;PMS_P2;Temp;Humidity;BMP_temperature;BMP_pressure;BME280_temperature;BME280_humidity;BME280_pressure;Samples;Min_cycle;Max_cycle;Signal;HPM_P1;HPM_P2
2023/09/05 00:01:56;;;;;;;0.22;0.10;;;15.10;99.90;;;;;;5125938;27;20471;-67
2023/09/05 00:04:21;;;;;;;0.10;0.10;;;15.10;99.90;;;;;;5097141;27;20134;-67
2023/09/05 00:06:47;;;;;;;0.30;0.10;;;15.10;99.90;;;;;;5131176;27;20035;-68
2023/09/05 00:09:15;;;;;;;0.10;0.03;;;15.10;99.90;;;;;;5095554;27;20468;-67
2023/09/05 00:11:40;;;;;;;0.57;0.20;;;15.00;99.90;;;;;;5132686;27;20042;-67
2023/09/05 00:14:06;;;;;;;1.05;0.30;;;15.10;99.90;;;;;;5112128;27;20042;-67
2023/09/05 00:16:32;;;;;;;0.50;0.28;;;15.10;99.90;;;;;;5132138;27;20035;-67
2023/09/05 00:18:58;;;;;;;2.00;0.40;;;15.00;99.90;;;;;;5129372;27;20114;-67
2023/09/05 00:21:23;;;;;;;0.73;0.20;;;15.00;99.90;;;;;;5112625;27;20054;-67
2023/09/05 00:23:49;;;;;;;0.17;0.10;;;15.00;99.90;;;;;;5111141;27;20099;-67
2023/09/05 00:26:15;;;;;;;0.75;0.25;;;14.90;99.90;;;;;;5131825;27;20446;-67
2023/09/05 00:28:42;;;;;;;0.65;0.20;;;14.90;99.90;;;;;;5131848;27;20146;-67
2023/09/05 00:31:10;;;;;;;0.68;0.30;;;14.90;99.90;;;;;;5109735;27;20115;-67
2023/09/05 00:33:36;;;;;;;0.40;0.10;;;14.90;99.90;;;;;;5108730;27;20043;-67
2023/09/05 00:36:04;;;;;;;0.93;0.43;;;14.90;99.90;;;;;;5112543;27;20039;-67
2023/09/05 00:38:30;;;;;;;0.75;0.22;;;14.90;99.90;;;;;;5128115;27;20043;-67
2023/09/05 00:40:56;;;;;;;0.80;0.43;;;14.90;99.90;;;;;;5112941;27;20136;-68
2023/09/05 00:43:22;;;;;;;0.95;0.22;;;14.90;99.90;;;;;;5109332;27;20119;-67
2023/09/05 00:45:51;;;;;;;1.25;0.40;;;14.90;99.90;;;;;;5112997;27;20041;-67
2023/09/05 00:48:18;;;;;;;0.35;0.20;;;14.90;99.90;;;;;;5111888;27;20086;-68
2023/09/05 00:50:46;;;;;;;0.73;0.30;;;14.90;99.90;;;;;;5129622;27;20085;-67
2023/09/05 00:53:12;;;;;;;0.38;0.20;;;14.90;99.90;;;;;;5128644;27;20046;-67
2023/09/05 00:55:38;;;;;;;0.68;0.20;;;15.00;99.90;;;;;;5127402;27;20388;-68
2023/09/05 00:58:04;;;;;;;0.30;0.20;;;15.00;99.90;;;;;;5112078;27;20611;-68
2023/09/05 01:00:30;;;;;;;1.15;0.40;;;15.00;99.90;;;;;;5127469;27;20047;-68
2023/09/05 01:02:55;;;;;;;1.75;0.25;;;15.00;99.90;;;;;;5129829;27;20066;-67
2023/09/05 01:05:27;;;;;;;0.57;0.20;;;15.00;99.90;;;;;;5110883;27;20399;-68
2023/09/05 01:08:04;;;;;;;0.20;0.20;;;14.90;99.90;;;;;;5131606;27;20595;-68
2023/09/05 01:10:49;;;;;;;0.55;0.20;;;15.00;99.90;;;;;;5128531;27;20060;-67
2023/09/05 01:13:24;;;;;;;1.33;0.30;;;14.90;99.90;;;;;;5111854;27;20130;-67
2023/09/05 01:15:50;;;;;;;0.73;0.40;;;14.90;99.90;;;;;;5130025;27;20042;-68
2023/09/05 01:18:15;;;;;;;0.38;0.17;;;14.80;99.90;;;;;;5081990;27;20039;-68
2023/09/05 01:21:00;;;;;;;1.00;0.40;;;14.80;99.90;;;;;;5104465;27;20418;-68
2023/09/05 01:23:33;;;;;;;0.57;0.20;;;14.80;99.90;;;;;;5130299;27;20039;-68
2023/09/05 01:26:00;;;;;;;0.28;0.10;;;14.80;99.90;;;;;;5110102;27;20058;-67
2023/09/05 01:28:26;;;;;;;1.17;0.40;;;14.70;99.90;;;;;;5130644;27;20517;-67
2023/09/05 01:30:53;;;;;;;1.05;0.38;;;14.70;99.90;;;;;;5110783;27;20148;-67
2023/09/05 01:33:18;;;;;;;0.40;0.10;;;14.70;99.90;;;;;;5107946;27;20043;-67
2023/09/05 01:35:44;;;;;;;1.10;0.30;;;14.70;99.90;;;;;;5130186;27;20031;-67
2023/09/05 01:38:10;;;;;;;0.82;0.43;;;14.70;99.90;;;;;;5128212;27;20082;-67
2023/09/05 01:40:36;;;;;;;0.73;0.30;;;14.70;99.90;;;;;;5130391;27;20070;-67
2023/09/05 01:43:02;;;;;;;0.43;0.30;;;14.70;99.90;;;;;;5129506;27;20354;-67
2023/09/05 01:45:28;;;;;;;1.05;0.40;;;14.70;99.90;;;;;;5129341;27;20043;-67
2023/09/05 01:47:53;;;;;;;0.35;0.30;;;14.70;99.90;;;;;;5108541;27;20126;-67
2023/09/05 01:50:22;;;;;;;0.52;0.20;;;14.60;99.90;;;;;;5109721;27;20043;-67
2023/09/05 01:52:47;;;;;;;0.75;0.20;;;14.50;99.90;;;;;;5107566;27;20043;-67
2023/09/05 01:55:13;;;;;;;0.20;0.20;;;14.50;99.90;;;;;;5111557;27;20050;-67
2023/09/05 01:57:39;;;;;;;0.90;0.30;;;14.50;99.90;;;;;;5129155;27;20031;-67
2023/09/05 02:00:05;;;;;;;0.93;0.28;;;14.40;99.90;;;;;;5091909;27;20049;-67
2023/09/05 02:02:31;;;;;;;0.85;0.55;;;14.40;99.90;;;;;;5112028;27;20426;-67
2023/09/05 02:04:56;;;;;;;0.60;0.43;;;14.30;99.90;;;;;;5110595;27;20142;-67
2023/09/05 02:07:22;;;;;;;1.10;0.40;;;14.30;99.90;;;;;;5108119;27;20028;-67
2023/09/05 02:09:48;;;;;;;1.17;0.60;;;14.30;99.90;;;;;;5108966;27;20031;-67
2023/09/05 02:12:14;;;;;;;0.43;0.30;;;14.30;99.90;;;;;;5128632;27;20147;-67
2023/09/05 02:14:45;;;;;;;0.73;0.20;;;14.30;99.90;;;;;;5111839;27;20095;-67
2023/09/05 02:17:15;;;;;;;1.80;0.20;;;14.20;99.90;;;;;;5131286;27;20122;-68
2023/09/05 02:19:41;;;;;;;0.45;0.30;;;14.20;99.90;;;;;;5092756;27;20043;-67
2023/09/05 02:22:07;;;;;;;0.35;0.32;;;14.20;99.90;;;;;;5127977;27;20050;-66
2023/09/05 02:24:33;;;;;;;0.95;0.32;;;14.20;99.90;;;;;;5127064;27;20028;-67
2023/09/05 02:26:58;;;;;;;1.55;0.63;;;14.20;99.90;;;;;;5111434;27;20122;-67
2023/09/05 02:29:26;;;;;;;0.65;0.40;;;14.20;99.90;;;;;;5128481;27;20043;-67
2023/09/05 02:31:52;;;;;;;0.88;0.40;;;14.10;99.90;;;;;;5122359;27;20413;-66
2023/09/05 02:34:18;;;;;;;0.73;0.43;;;14.10;99.90;;;;;;5129275;27;20031;-67
2023/09/05 02:36:43;;;;;;;1.05;0.38;;;14.10;99.90;;;;;;5111117;27;20115;-67
2023/09/05 02:39:09;;;;;;;0.40;0.35;;;14.10;99.90;;;;;;5094867;27;20567;-68
2023/09/05 02:41:35;;;;;;;1.35;0.57;;;14.00;99.90;;;;;;5130461;27;20039;-66
2023/09/05 02:44:01;;;;;;;0.47;0.20;;;14.00;99.90;;;;;;5111351;27;20035;-67
2023/09/05 02:46:27;;;;;;;0.57;0.30;;;13.90;99.90;;;;;;5130505;27;20118;-67
2023/09/05 02:48:52;;;;;;;0.60;0.25;;;13.90;99.90;;;;;;5128966;27;20122;-67
2023/09/05 02:51:18;;;;;;;1.45;0.70;;;13.90;99.90;;;;;;5094216;27;20019;-67
2023/09/05 02:53:44;;;;;;;0.20;0.20;;;13.90;99.90;;;;;;5129356;27;20080;-67
2023/09/05 02:56:10;;;;;;;1.30;0.22;;;13.80;99.90;;;;;;5128818;27;20043;-67
2023/09/05 02:58:35;;;;;;;1.25;0.50;;;13.80;99.90;;;;;;5128427;27;20475;-67
2023/09/05 03:01:11;;;;;;;3.05;0.20;;;13.90;99.90;;;;;;5128087;28;20054;-67
2023/09/05 03:03:38;;;;;;;0.60;0.45;;;13.80;99.90;;;;;;5104815;28;20436;-67
2023/09/05 03:06:14;;;;;;;2.30;0.50;;;13.90;99.90;;;;;;5108606;28;20071;-67
2023/09/05 03:08:45;;;;;;;0.47;0.35;;;13.90;99.90;;;;;;5127297;28;20039;-67
2023/09/05 03:11:13;;;;;;;0.82;0.20;;;13.90;99.90;;;;;;5127203;28;20572;-67
2023/09/05 03:13:39;;;;;;;0.52;0.22;;;13.90;99.90;;;;;;5126979;28;20050;-68
2023/09/05 03:16:05;;;;;;;4.15;0.77;;;13.90;99.90;;;;;;5130277;28;20042;-67
2023/09/05 03:18:30;;;;;;;0.47;0.35;;;13.90;99.90;;;;;;5126888;28;20031;-67
2023/09/05 03:20:56;;;;;;;0.82;0.30;;;13.90;99.90;;;;;;5128619;28;20039;-67
2023/09/05 03:23:22;;;;;;;0.65;0.32;;;13.90;99.90;;;;;;5108672;28;20035;-67
2023/09/05 03:25:48;;;;;;;0.75;0.47;;;13.90;99.90;;;;;;5128195;28;20036;-67
2023/09/05 03:28:14;;;;;;;0.75;0.28;;;14.00;99.90;;;;;;5125665;28;20039;-67
2023/09/05 03:30:41;;;;;;;0.77;0.40;;;14.00;99.90;;;;;;5111110;28;20088;-68
2023/09/05 03:33:07;;;;;;;0.80;0.43;;;13.90;99.90;;;;;;5109515;28;20043;-68
2023/09/05 03:35:33;;;;;;;1.05;0.40;;;13.90;99.90;;;;;;5107341;28;20043;-68
2023/09/05 03:37:59;;;;;;;1.20;0.43;;;13.90;99.90;;;;;;5129855;28;20043;-68
2023/09/05 03:40:25;;;;;;;0.30;0.13;;;13.90;99.90;;;;;;5111114;28;20047;-67
2023/09/05 03:42:51;;;;;;;1.77;0.50;;;13.90;99.90;;;;;;5129562;28;20516;-68
2023/09/05 03:45:18;;;;;;;1.17;0.40;;;13.90;99.90;;;;;;5128447;28;20084;-68
2023/09/05 03:47:44;;;;;;;0.68;0.25;;;13.80;99.90;;;;;;5129347;28;20039;-68
2023/09/05 03:50:10;;;;;;;1.45;0.40;;;13.80;99.90;;;;;;5111160;28;20035;-67
2023/09/05 03:52:35;;;;;;;0.43;0.20;;;13.80;99.90;;;;;;5091653;28;20125;-67
2023/09/05 03:55:01;;;;;;;0.85;0.40;;;13.80;99.90;;;;;;5109842;28;20158;-67
2023/09/05 03:57:27;;;;;;;0.35;0.22;;;13.80;99.90;;;;;;5107560;28;20093;-67
2023/09/05 03:59:52;;;;;;;0.55;0.30;;;13.70;99.90;;;;;;5129534;28;20721;-67
2023/09/05 04:02:18;;;;;;;0.40;0.30;;;13.70;99.90;;;;;;5108329;28;20039;-67
2023/09/05 04:04:44;;;;;;;1.08;0.30;;;13.70;99.90;;;;;;5128891;28;20039;-67
2023/09/05 04:07:10;;;;;;;0.52;0.40;;;13.70;99.90;;;;;;5111882;27;20111;-67
2023/09/05 04:09:36;;;;;;;1.95;0.60;;;13.60;99.90;;;;;;5111135;27;20035;-67
2023/09/05 04:12:01;;;;;;;1.85;0.35;;;13.60;99.90;;;;;;5131552;27;20035;-67
2023/09/05 04:14:27;;;;;;;0.55;0.40;;;13.60;99.90;;;;;;5114132;27;20074;-67
2023/09/05 04:16:53;;;;;;;0.32;0.25;;;13.60;99.90;;;;;;5106985;27;20487;-67
2023/09/05 04:19:18;;;;;;;1.02;0.32;;;13.60;99.90;;;;;;5110807;27;20054;-67
2023/09/05 04:21:44;;;;;;;1.02;0.25;;;13.60;99.90;;;;;;5129985;27;20174;-67
2023/09/05 04:24:10;;;;;;;2.10;0.50;;;13.50;99.90;;;;;;5109730;27;20039;-67
2023/09/05 04:26:37;;;;;;;0.82;0.32;;;13.50;99.90;;;;;;5109808;27;20221;-67
2023/09/05 04:29:04;;;;;;;6.72;0.55;;;13.50;99.90;;;;;;5109073;27;20052;-67
2023/09/05 04:31:30;;;;;;;0.47;0.25;;;13.50;99.90;;;;;;5113042;27;20051;-66
2023/09/05 04:33:56;;;;;;;0.35;0.20;;;13.50;99.90;;;;;;5112143;27;20171;-66
2023/09/05 04:36:22;;;;;;;1.42;0.52;;;13.50;99.90;;;;;;5128300;27;20043;-67
2023/09/05 04:38:50;;;;;;;0.52;0.20;;;13.50;99.90;;;;;;5129676;27;20503;-67
2023/09/05 04:41:16;;;;;;;0.57;0.30;;;13.50;99.90;;;;;;5113457;27;20058;-67
2023/09/05 04:43:41;;;;;;;0.80;0.40;;;13.50;99.90;;;;;;5096409;27;20035;-67
2023/09/05 04:46:09;;;;;;;0.45;0.30;;;13.50;99.90;;;;;;5095971;27;20073;-67
2023/09/05 04:48:35;;;;;;;0.57;0.28;;;13.50;99.90;;;;;;5131457;27;20043;-68
2023/09/05 04:51:04;;;;;;;1.05;0.55;;;13.40;99.90;;;;;;5111995;27;20501;-68
2023/09/05 04:53:33;;;;;;;0.35;0.20;;;13.40;99.90;;;;;;5112313;27;20035;-68
2023/09/05 04:56:03;;;;;;;0.65;0.40;;;13.40;99.90;;;;;;5113167;27;20044;-68
2023/09/05 04:58:29;;;;;;;0.80;0.55;;;13.40;99.90;;;;;;5130022;27;20043;-68
2023/09/05 05:01:02;;;;;;;1.02;0.38;;;13.40;99.90;;;;;;5112437;27;20475;-68
2023/09/05 05:03:32;;;;;;;1.48;0.50;;;13.40;99.90;;;;;;5129222;27;20038;-68
2023/09/05 05:05:58;;;;;;;1.58;0.50;;;13.30;99.90;;;;;;5129072;27;20042;-68
2023/09/05 05:08:24;;;;;;;2.97;1.23;;;13.40;99.90;;;;;;5111940;27;20031;-68
2023/09/05 05:10:49;;;;;;;1.10;0.50;;;13.40;99.90;;;;;;5111982;27;20433;-68
2023/09/05 05:13:15;;;;;;;0.80;0.38;;;13.40;99.90;;;;;;5130704;27;20075;-68
2023/09/05 05:15:45;;;;;;;0.65;0.40;;;13.50;99.90;;;;;;5108729;27;20123;-68
2023/09/05 05:18:11;;;;;;;1.27;0.45;;;13.40;99.90;;;;;;5129814;27;20054;-68
2023/09/05 05:20:37;;;;;;;0.70;0.30;;;13.50;99.90;;;;;;5111636;27;20038;-68
2023/09/05 05:23:04;;;;;;;1.65;0.75;;;13.50;99.90;;;;;;5127721;27;20478;-68
2023/09/05 05:25:30;;;;;;;2.47;0.50;;;13.50;99.90;;;;;;5131042;27;20035;-68
2023/09/05 05:27:55;;;;;;;0.80;0.57;;;13.50;99.90;;;;;;5112004;27;20471;-68
2023/09/05 05:30:21;;;;;;;0.80;0.40;;;13.50;99.90;;;;;;5107869;27;20046;-68
2023/09/05 05:32:47;;;;;;;0.40;0.30;;;13.60;99.90;;;;;;5091971;27;20043;-68
2023/09/05 05:35:13;;;;;;;1.50;0.60;;;13.60;99.90;;;;;;5129330;27;20051;-68
2023/09/05 05:37:39;;;;;;;0.52;0.28;;;13.70;99.90;;;;;;5111988;27;20091;-68
2023/09/05 05:40:05;;;;;;;1.85;0.75;;;13.70;99.90;;;;;;5111936;27;20146;-68
2023/09/05 05:42:31;;;;;;;2.08;0.40;;;13.80;99.90;;;;;;5136361;27;20055;-68
2023/09/05 05:44:56;;;;;;;1.23;0.50;;;13.90;99.90;;;;;;5129902;27;20122;-68
2023/09/05 05:47:24;;;;;;;1.50;0.95;;;14.00;99.90;;;;;;5108987;27;20039;-68
2023/09/05 05:49:50;;;;;;;0.70;0.40;;;14.00;99.90;;;;;;5129100;27;20102;-68
2023/09/05 05:52:17;;;;;;;1.17;0.60;;;14.20;99.90;;;;;;5109053;27;20110;-68
2023/09/05 05:54:42;;;;;;;1.45;0.50;;;14.20;99.90;;;;;;5111575;27;20399;-68
2023/09/05 05:57:08;;;;;;;0.93;0.70;;;14.30;99.90;;;;;;5108762;27;20043;-68
2023/09/05 05:59:34;;;;;;;1.08;0.50;;;14.40;99.90;;;;;;5106510;27;20050;-68
2023/09/05 06:02:00;;;;;;;1.20;0.40;;;14.50;99.90;;;;;;5107472;27;20583;-68
2023/09/05 06:04:25;;;;;;;0.77;0.30;;;14.60;99.90;;;;;;5130357;27;20082;-68
2023/09/05 06:06:52;;;;;;;1.05;0.30;;;14.70;99.90;;;;;;5109325;27;20040;-68
2023/09/05 06:09:18;;;;;;;0.50;0.38;;;14.70;99.90;;;;;;5094844;27;20463;-68
2023/09/05 06:11:48;;;;;;;0.52;0.32;;;14.80;99.90;;;;;;5130711;27;20110;-68
2023/09/05 06:14:14;;;;;;;0.65;0.20;;;15.00;99.90;;;;;;5130979;27;20081;-68
2023/09/05 06:16:40;;;;;;;0.60;0.30;;;15.00;99.90;;;;;;5111870;27;20062;-69
2023/09/05 06:19:08;;;;;;;1.70;0.60;;;15.10;99.90;;;;;;5129057;27;20100;-68
2023/09/05 06:21:34;;;;;;;0.70;0.47;;;15.30;99.90;;;;;;5110551;27;20081;-68
2023/09/05 06:24:00;;;;;;;0.47;0.30;;;15.40;99.90;;;;;;5129437;27;20042;-69
2023/09/05 06:26:26;;;;;;;0.35;0.20;;;15.50;99.90;;;;;;5112182;27;20398;-69
2023/09/05 06:28:53;;;;;;;0.73;0.40;;;15.60;99.90;;;;;;5110076;27;20035;-68
2023/09/05 06:31:19;;;;;;;0.30;0.20;;;15.70;99.90;;;;;;5129155;27;20058;-68
2023/09/05 06:33:45;;;;;;;0.82;0.40;;;15.80;99.90;;;;;;5127912;27;20074;-68
2023/09/05 06:36:11;;;;;;;0.40;0.20;;;16.00;99.90;;;;;;5111050;27;20098;-69
2023/09/05 06:38:37;;;;;;;0.55;0.35;;;16.10;99.90;;;;;;5111110;27;20039;-69
2023/09/05 06:41:07;;;;;;;1.38;0.60;;;16.30;99.90;;;;;;5108338;27;20101;-69
2023/09/05 06:43:33;;;;;;;0.82;0.30;;;16.40;99.90;;;;;;5107750;27;20099;-69
2023/09/05 06:46:08;;;;;;;1.40;0.63;;;16.50;99.90;;;;;;5129910;27;20546;-69
2023/09/05 06:48:38;;;;;;;0.40;0.20;;;16.60;99.90;;;;;;5107226;27;20054;-69
2023/09/05 06:51:04;;;;;;;0.45;0.35;;;16.80;99.90;;;;;;5127738;27;20178;-69
2023/09/05 06:53:33;;;;;;;0.75;0.30;;;16.90;99.90;;;;;;5127429;27;20035;-69
2023/09/05 06:55:59;;;;;;;0.95;0.57;;;17.00;99.90;;;;;;5128139;27;20073;-69
2023/09/05 06:58:26;;;;;;;0.75;0.30;;;17.20;99.90;;;;;;5106767;27;20481;-69
2023/09/05 07:00:55;;;;;;;0.88;0.30;;;17.30;99.90;;;;;;5110512;28;20035;-69
2023/09/05 07:03:25;;;;;;;1.00;0.32;;;17.40;99.90;;;;;;5125621;28;20048;-69
2023/09/05 07:05:53;;;;;;;0.38;0.20;;;17.60;99.90;;;;;;5103481;28;20424;-69
2023/09/05 07:08:18;;;;;;;1.17;0.45;;;17.70;99.90;;;;;;5127415;28;20415;-69
2023/09/05 07:10:47;;;;;;;0.70;0.17;;;17.90;99.90;;;;;;5128637;28;20035;-69
2023/09/05 07:13:12;;;;;;;0.47;0.20;;;18.00;99.90;;;;;;5128441;28;20075;-69
2023/09/05 07:15:38;;;;;;;0.70;0.30;;;18.20;99.90;;;;;;5092524;28;20067;-69
2023/09/05 07:18:04;;;;;;;0.60;0.20;;;18.30;99.90;;;;;;5111126;28;20316;-69
2023/09/05 07:20:31;;;;;;;1.27;0.60;;;18.50;99.90;;;;;;5107960;28;20128;-69
2023/09/05 07:22:57;;;;;;;1.52;0.55;;;18.70;99.90;;;;;;5111774;28;20047;-69
2023/09/05 07:25:22;;;;;;;0.63;0.22;;;18.80;99.90;;;;;;5127764;28;20034;-69
2023/09/05 07:27:48;;;;;;;1.27;0.55;;;18.90;99.90;;;;;;5091313;28;20027;-69
2023/09/05 07:30:16;;;;;;;0.40;0.15;;;19.20;99.90;;;;;;5126737;28;20103;-69
2023/09/05 07:32:43;;;;;;;0.22;0.15;;;19.30;99.90;;;;;;5129138;28;20055;-69
2023/09/05 07:35:09;;;;;;;0.70;0.47;;;19.50;99.90;;;;;;5129219;28;20035;-69
2023/09/05 07:37:36;;;;;;;0.20;0.10;;;19.60;99.90;;;;;;5110522;28;20043;-69
2023/09/05 07:40:05;;;;;;;0.57;0.20;;;19.70;99.90;;;;;;5109509;27;20067;-69
2023/09/05 07:42:30;;;;;;;0.98;0.43;;;19.90;99.90;;;;;;5114315;27;20095;-69
2023/09/05 07:44:56;;;;;;;1.20;0.40;;;20.10;99.90;;;;;;5133341;27;20027;-69
2023/09/05 07:47:22;;;;;;;0.60;0.20;;;20.20;99.90;;;;;;5114913;27;20035;-69
2023/09/05 07:49:47;;;;;;;0.45;0.13;;;20.40;99.90;;;;;;5113978;27;20070;-69
2023/09/05 07:52:13;;;;;;;0.35;0.17;;;20.50;99.90;;;;;;5113555;27;20076;-68
2023/09/05 07:54:39;;;;;;;0.60;0.25;;;20.70;99.90;;;;;;5111781;27;20042;-68
2023/09/05 07:57:05;;;;;;;0.60;0.30;;;20.80;99.90;;;;;;5095814;27;20070;-69
2023/09/05 07:59:31;;;;;;;0.40;0.20;;;21.10;99.90;;;;;;5114217;27;20068;-69
2023/09/05 08:01:57;;;;;;;1.33;0.40;;;21.30;99.90;;;;;;5129175;27;20089;-68
2023/09/05 08:04:23;;;;;;;1.88;0.30;;;21.70;99.90;;;;;;5131683;27;20042;-69
2023/09/05 08:06:49;;;;;;;0.90;0.30;;;22.00;99.90;;;;;;5096321;27;20435;-69
2023/09/05 08:09:15;;;;;;;0.57;0.20;;;22.50;99.90;;;;;;5112320;27;20103;-69
2023/09/05 08:11:41;;;;;;;0.10;0.08;;;23.30;99.90;;;;;;5131665;27;20043;-69
2023/09/05 08:14:06;;;;;;;0.90;0.20;;;24.20;99.90;;;;;;5113685;27;20138;-69
2023/09/05 08:16:33;;;;;;;0.45;0.20;;;25.20;99.90;;;;;;5096769;27;20035;-69
2023/09/05 08:18:59;;;;;;;0.85;0.38;;;25.80;99.90;;;;;;5131614;27;20509;-69
2023/09/05 08:21:26;;;;;;;0.30;0.20;;;26.30;99.90;;;;;;5113522;27;20035;-69
2023/09/05 08:23:52;;;;;;;0.20;0.20;;;26.80;99.90;;;;;;5112513;27;20054;-69
2023/09/05 08:26:18;;;;;;;0.52;0.20;;;27.40;99.90;;;;;;5113723;27;20095;-69
2023/09/05 08:28:45;;;;;;;0.35;0.10;;;27.90;99.90;;;;;;5128125;27;20106;-69
2023/09/05 08:31:12;;;;;;;0.17;0.10;;;28.20;99.90;;;;;;5129086;27;20058;-70
2023/09/05 08:33:38;;;;;;;0.50;0.20;;;28.60;99.90;;;;;;5112216;27;20508;-69
2023/09/05 08:36:05;;;;;;;0.30;0.20;;;28.70;99.90;;;;;;5132148;27;20505;-69
2023/09/05 08:38:31;;;;;;;0.40;0.15;;;29.00;99.90;;;;;;5130846;27;20039;-69
2023/09/05 08:41:04;;;;;;;0.08;0.08;;;29.10;99.90;;;;;;5111514;27;20043;-69
2023/09/05 08:43:29;;;;;;;1.70;0.10;;;29.20;99.90;;;;;;5109084;27;20491;-69
2023/09/05 08:46:02;;;;;;;0.35;0.00;;;29.30;99.90;;;;;;5130331;27;20050;-69
2023/09/05 08:48:28;;;;;;;0.95;0.08;;;29.50;99.90;;;;;;5112101;27;20114;-69
2023/09/05 08:50:55;;;;;;;0.10;0.10;;;29.80;99.20;;;;;;5109704;27;20545;-69
2023/09/05 08:53:31;;;;;;;0.80;0.35;;;29.90;99.90;;;;;;5128137;27;20122;-70
2023/09/05 08:55:58;;;;;;;0.17;0.08;;;30.20;99.90;;;;;;5128745;27;20042;-70
2023/09/05 08:58:25;;;;;;;0.25;0.10;;;30.60;99.90;;;;;;5131283;27;20039;-69
2023/09/05 09:00:51;;;;;;;0.00;0.00;;;30.60;99.90;;;;;;5112901;27;20043;-70
2023/09/05 09:03:17;;;;;;;0.00;0.00;;;30.50;98.10;;;;;;5112717;27;20047;-69
2023/09/05 09:05:46;;;;;;;0.00;0.00;;;30.70;96.50;;;;;;5130134;27;20077;-69
2023/09/05 09:08:12;;;;;;;0.10;0.10;;;30.90;86.30;;;;;;5112108;27;20047;-69
2023/09/05 09:10:39;;;;;;;0.08;0.00;;;31.20;91.10;;;;;;5130458;27;20106;-70
2023/09/05 09:13:15;;;;;;;0.10;0.03;;;31.60;90.30;;;;;;5131205;27;20389;-69
2023/09/05 09:15:43;;;;;;;1.55;0.52;;;31.70;84.80;;;;;;5130112;27;20066;-69
2023/09/05 09:18:20;;;;;;;0.43;0.10;;;31.80;89.80;;;;;;5129797;27;20054;-69
2023/09/05 09:20:46;;;;;;;0.10;0.00;;;31.80;92.40;;;;;;5111625;27;20043;-70
2023/09/05 09:23:23;;;;;;;0.20;0.10;;;31.80;91.00;;;;;;5112664;27;20046;-69
2023/09/05 09:25:49;;;;;;;0.57;0.10;;;31.80;90.80;;;;;;5130950;27;20031;-70
2023/09/05 09:28:23;;;;;;;0.17;0.17;;;31.90;75.10;;;;;;5111940;27;20361;-70
2023/09/05 09:31:11;;;;;;;0.00;0.00;;;31.70;77.50;;;;;;5130656;27;20125;-69
2023/09/05 09:33:37;;;;;;;0.00;0.00;;;31.90;70.20;;;;;;5109593;27;20054;-70
2023/09/05 09:36:05;;;;;;;0.52;0.08;;;32.00;81.10;;;;;;5130712;27;20096;-70
2023/09/05 09:38:31;;;;;;;0.15;0.05;;;31.70;74.30;;;;;;5130619;27;20047;-70
2023/09/05 09:41:03;;;;;;;0.15;0.10;;;31.90;71.40;;;;;;5111929;27;20086;-70
2023/09/05 09:43:34;;;;;;;0.47;0.10;;;32.10;68.90;;;;;;5111885;27;20047;-69
2023/09/05 09:46:04;;;;;;;0.22;0.10;;;32.00;67.90;;;;;;5129934;27;20418;-70
2023/09/05 09:48:30;;;;;;;0.22;0.10;;;31.90;70.40;;;;;;5135355;27;20039;-70
2023/09/05 09:51:00;;;;;;;0.10;0.00;;;31.90;63.70;;;;;;5125572;27;20035;-69
2023/09/05 09:53:39;;;;;;;0.38;0.20;;;32.00;71.40;;;;;;5128049;27;20380;-70
2023/09/05 09:56:18;;;;;;;0.00;0.00;;;32.00;62.60;;;;;;5126253;27;20108;-69
2023/09/05 09:58:46;;;;;;;0.00;0.00;;;32.20;66.00;;;;;;5128462;27;20558;-70
2023/09/05 10:01:13;;;;;;;0.30;0.10;;;32.30;65.40;;;;;;5129799;27;20031;-70
2023/09/05 10:03:40;;;;;;;0.50;0.00;;;32.10;67.00;;;;;;5106922;27;20067;-70
2023/09/05 10:06:07;;;;;;;0.13;0.03;;;32.10;64.60;;;;;;5093368;27;20184;-69
2023/09/05 10:08:34;;;;;;;0.17;0.10;;;32.30;70.80;;;;;;5126298;27;20043;-70
2023/09/05 10:11:00;;;;;;;1.67;0.10;;;32.40;64.10;;;;;;5126238;27;20118;-70
2023/09/05 10:13:30;;;;;;;0.10;0.00;;;32.20;62.60;;;;;;5126908;27;20046;-70
2023/09/05 10:15:56;;;;;;;0.52;0.10;;;32.20;67.50;;;;;;5102214;27;20044;-70
2023/09/05 10:18:23;;;;;;;0.10;0.00;;;32.00;65.80;;;;;;5127770;27;20035;-70
2023/09/05 10:20:50;;;;;;;0.20;0.00;;;31.80;65.70;;;;;;5123696;27;20394;-70
2023/09/05 10:23:18;;;;;;;0.00;0.00;;;31.80;64.50;;;;;;5126113;27;20050;-70
2023/09/05 10:25:45;;;;;;;0.30;0.10;;;31.70;66.10;;;;;;5124640;27;20027;-69
2023/09/05 10:28:10;;;;;;;0.20;0.00;;;31.80;66.00;;;;;;5128522;27;20100;-70
2023/09/05 10:30:40;;;;;;;0.10;0.10;;;31.80;63.50;;;;;;5125089;27;20062;-70
2023/09/05 10:33:09;;;;;;;0.10;0.10;;;31.80;64.30;;;;;;5109394;27;20121;-70
2023/09/05 10:35:35;;;;;;;1.23;0.00;;;31.90;65.30;;;;;;5126358;27;20068;-69
2023/09/05 10:38:04;;;;;;;0.10;0.00;;;31.90;63.90;;;;;;5127721;27;20043;-68
2023/09/05 10:40:37;;;;;;;0.00;0.00;;;32.00;62.20;;;;;;5127891;27;20059;-70
2023/09/05 10:43:05;;;;;;;0.10;0.00;;;32.10;65.60;;;;;;5106623;27;20087;-69
2023/09/05 10:45:33;;;;;;;0.20;0.05;;;32.20;61.60;;;;;;5092264;28;20611;-69
2023/09/05 10:48:15;;;;;;;0.75;0.00;;;32.20;59.00;;;;;;5109760;28;20042;-69
2023/09/05 10:51:03;;;;;;;0.00;0.00;;;32.20;60.40;;;;;;5125608;27;20039;-69
2023/09/05 10:53:29;;;;;;;0.10;0.00;;;32.20;59.90;;;;;;5129872;27;20039;-69
2023/09/05 10:55:54;;;;;;;0.47;0.10;;;32.10;60.00;;;;;;5126959;27;20180;-70
2023/09/05 10:58:38;;;;;;;0.03;0.00;;;32.10;62.20;;;;;;5126593;27;20042;-70
2023/09/05 11:01:32;;;;;;;0.00;0.00;;;32.00;59.20;;;;;;5091008;28;20095;-69
2023/09/05 11:04:03;;;;;;;0.17;0.10;;;31.90;57.90;;;;;;5106223;28;20039;-69
2023/09/05 11:06:29;;;;;;;0.13;0.00;;;31.90;58.30;;;;;;5127169;28;20035;-69
2023/09/05 11:09:04;;;;;;;0.30;0.10;;;31.90;60.70;;;;;;5126382;28;20124;-70
2023/09/05 11:11:37;;;;;;;0.38;0.08;;;31.90;60.50;;;;;;5122538;28;20043;-69
2023/09/05 11:14:06;;;;;;;0.00;0.00;;;31.90;61.10;;;;;;5125850;28;20039;-69
2023/09/05 11:16:47;;;;;;;0.03;0.00;;;32.10;61.50;;;;;;5129916;27;20035;-69
2023/09/05 11:19:27;;;;;;;2.72;0.52;;;32.30;61.70;;;;;;5111642;27;20044;-69
2023/09/05 11:22:23;;;;;;;0.10;0.00;;;32.70;62.20;;;;;;5113566;27;20100;-69
2023/09/05 11:24:58;;;;;;;0.52;0.00;;;32.70;60.10;;;;;;5131938;27;20050;-69
2023/09/05 11:27:32;;;;;;;0.10;0.00;;;33.00;59.70;;;;;;5105374;27;20572;-70
2023/09/05 11:30:00;;;;;;;0.00;0.00;;;33.20;58.60;;;;;;5110720;27;20035;-69
2023/09/05 11:32:33;;;;;;;0.60;0.00;;;33.60;58.90;;;;;;5127265;27;20031;-70
2023/09/05 11:35:00;;;;;;;0.10;0.00;;;33.90;58.10;;;;;;5126981;27;20071;-70
2023/09/05 11:37:28;;;;;;;0.20;0.00;;;34.10;58.90;;;;;;5118306;27;20042;-69
2023/09/05 11:39:54;;;;;;;0.00;0.00;;;34.10;55.00;;;;;;5104765;27;20123;-69
2023/09/05 11:42:22;;;;;;;0.00;0.00;;;34.20;56.20;;;;;;5127057;27;20054;-70
2023/09/05 11:44:49;;;;;;;0.25;0.00;;;34.40;57.80;;;;;;5103227;27;20105;-69
2023/09/05 11:47:16;;;;;;;0.17;0.00;;;34.70;54.20;;;;;;5123320;27;20523;-69
2023/09/05 11:49:43;;;;;;;0.00;0.00;;;34.80;55.90;;;;;;5109208;27;20050;-69
2023/09/05 11:52:11;;;;;;;0.10;0.00;;;35.10;57.30;;;;;;5123931;27;20118;-70
2023/09/05 11:54:39;;;;;;;0.25;0.00;;;35.20;57.10;;;;;;5130675;27;20215;-69
2023/09/05 11:57:07;;;;;;;0.05;0.00;;;35.30;54.00;;;;;;5123433;27;21713;-69
2023/09/05 11:59:33;;;;;;;0.08;0.00;;;35.10;52.70;;;;;;5105865;27;20062;-69
2023/09/05 12:02:15;;;;;;;0.00;0.00;;;34.90;52.00;;;;;;5123644;27;20081;-69
2023/09/05 12:04:41;;;;;;;0.20;0.10;;;34.80;52.00;;;;;;5129494;27;20114;-69
2023/09/05 12:07:08;;;;;;;0.20;0.00;;;34.80;53.80;;;;;;5125122;27;20039;-69
2023/09/05 12:09:34;;;;;;;0.90;0.00;;;34.90;53.30;;;;;;5109988;27;20501;-68
2023/09/05 12:12:13;;;;;;;0.00;0.00;;;35.00;52.40;;;;;;5125293;27;20043;-68
2023/09/05 12:14:59;;;;;;;0.00;0.00;;;35.10;52.70;;;;;;5128036;27;20447;-68
2023/09/05 12:17:26;;;;;;;0.38;0.00;;;35.30;52.80;;;;;;5125588;27;20491;-69
2023/09/05 12:19:54;;;;;;;0.00;0.00;;;35.50;52.60;;;;;;5128643;27;20043;-69
2023/09/05 12:22:31;;;;;;;0.00;0.00;;;35.50;53.70;;;;;;5107504;27;20486;-69
2023/09/05 12:25:07;;;;;;;0.00;0.00;;;35.80;52.50;;;;;;5128037;27;20186;-69
2023/09/05 12:27:33;;;;;;;0.32;0.05;;;35.80;51.40;;;;;;5126087;27;20550;-69
2023/09/05 12:29:58;;;;;;;0.70;0.10;;;35.80;50.80;;;;;;5130430;27;20118;-69
2023/09/05 12:32:26;;;;;;;0.00;0.00;;;35.70;51.80;;;;;;5107768;27;20043;-69
2023/09/05 12:34:54;;;;;;;0.10;0.00;;;35.80;51.60;;;;;;5126073;27;20039;-69
2023/09/05 12:37:20;;;;;;;1.65;0.00;;;36.20;53.00;;;;;;5110938;27;20048;-69
2023/09/05 12:39:46;;;;;;;0.20;0.10;;;36.50;51.20;;;;;;5109891;27;20100;-69
2023/09/05 12:42:12;;;;;;;0.00;0.00;;;36.40;52.50;;;;;;5127893;27;20093;-69
2023/09/05 12:44:37;;;;;;;0.00;0.00;;;36.50;52.80;;;;;;5112991;27;20039;-69
2023/09/05 12:47:03;;;;;;;0.00;0.00;;;36.40;51.50;;;;;;5110203;27;20046;-69
2023/09/05 12:49:32;;;;;;;0.00;0.00;;;36.40;51.80;;;;;;5128433;27;20081;-69
2023/09/05 12:51:58;;;;;;;0.00;0.00;;;36.40;49.60;;;;;;5105354;27;20043;-69